sensor_id;sensor_type;location;lat;lon;timestamp;pressure;altitude;pressure_sealevel;temperature;humidity
55014;BME280;40916;51.632;5.552;2022-07-01T00:00:05;1011.2539710278951;;;13.002480752066592;0
55014;BME280;40916;51.632;5.552;2022-07-01T00:01:04;1011.1910797955387;;;13.002480752066592;0
55014;BME280;40916;51.632;5.552;2022-07-01T00:02:05;1011.2694851110813;;;13.00914633292166;0
55014;BME280;40916;51.632;5.552;2022-07-01T00:03:05;1011.2703105068039;;;12.982481694637762;0
55014;BME280;40916;51.632;5.552;2022-07-01T00:04:05;1011.3073037650681;;;12.982481694637762;0
55014;BME280;40916;51.632;5.552;2022-07-01T00:05:05;1011.2791495654564;;;12.995814785479006;0
55014;BME280;40916;51.632;5.552;2022-07-01T00:06:05;1011.3605371112618;;;12.995814785479006;0
55014;BME280;40916;51.632;5.552;2022-07-01T00:07:05;1011.3945515556021;;;13.002480752066592;0
55014;BME280;40916;51.632;5.552;2022-07-01T00:08:05;1011.3960876340802;;;12.982481694637762;0
55014;BME280;40916;51.632;5.552;2022-07-01T00:09:05;1011.3828126614627;;;12.962479162452478;0
55014;BME280;40916;51.632;5.552;2022-07-01T00:10:06;1011.265220618111;;;12.935803708887033;0
55014;BME280;40916;51.632;5.552;2022-07-01T00:11:05;1011.2644872375303;;;12.929133878524844;0
55014;BME280;40916;51.632;5.552;2022-07-01T00:12:06;1011.2881464597124;;;12.942473152343368;0
55014;BME280;40916;51.632;5.552;2022-07-01T00:13:06;1011.2326878241813;;;12.909122064826953;0
55014;BME280;40916;51.632;5.552;2022-07-01T00:14:06;1011.2778023582405;;;12.882434222741537;0
55014;BME280;40916;51.632;5.552;2022-07-01T00:15:06;1011.3265845766741;;;12.855740175087874;0
55014;BME280;40916;51.632;5.552;2022-07-01T00:16:06;1011.2969981053554;;;12.855740175087874;0
55014;BME280;40916;51.632;5.552;2022-07-01T00:17:06;1011.2067342085688;;;12.842390821812444;0
55014;BME280;40916;51.632;5.552;2022-07-01T00:18:06;1011.211185509418;;;12.84906569266932;0
55014;BME280;40916;51.632;5.552;2022-07-01T00:19:06;1011.2688480678794;;;12.835715562399027;0
55014;BME280;40916;51.632;5.552;2022-07-01T00:20:07;1011.2148837615265;;;12.84906569266932;0
55014;BME280;40916;51.632;5.552;2022-07-01T00:21:06;1011.2481680359236;;;12.84906569266932;0
55014;BME280;40916;51.632;5.552;2022-07-01T00:22:07;1011.2733577157052;;;12.87576129289506;0
55014;BME280;40916;51.632;5.552;2022-07-01T00:23:07;1011.2267669168681;;;12.88910676474006;0
55014;BME280;40916;51.632;5.552;2022-07-01T00:24:07;1011.2230683428784;;;12.88910676474006;0
55014;BME280;40916;51.632;5.552;2022-07-01T00:25:07;1011.2245512499188;;;12.90245068566491;0
55014;BME280;40916;51.632;5.552;2022-07-01T00:26:07;1011.1838481072531;;;12.869087975082646;0
55014;BME280;40916;51.632;5.552;2022-07-01T00:27:07;1011.170424470304;;;12.815687451636652;0
55014;BME280;40916;51.632;5.552;2022-07-01T00:28:07;1011.176161392731;;;12.768941571613126;0
55014;BME280;40916;51.632;5.552;2022-07-01T00:29:07;1011.128696932755;;;12.742221065858708;0
55014;BME280;40916;51.632;5.552;2022-07-01T00:30:08;1011.1709191632006;;;12.755582098931413;0
55014;BME280;40916;51.632;5.552;2022-07-01T00:31:07;1011.0790762155435;;;12.728858471443694;0
55014;BME280;40916;51.632;5.552;2022-07-01T00:32:08;1011.0294520097912;;;12.715494314734276;0
55014;BME280;40916;51.632;5.552;2022-07-01T00:33:08;1011.1625503424942;;;12.715494314734276;0
55014;BME280;40916;51.632;5.552;2022-07-01T00:34:08;1011.1744245288348;;;12.722176588435321;0
55014;BME280;40916;51.632;5.552;2022-07-01T00:35:08;1011.2180080271715;;;12.715494314734276;0
55014;BME280;40916;51.632;5.552;2022-07-01T00:36:08;1011.2436432017273;;;12.682077081667597;0
55014;BME280;40916;51.632;5.552;2022-07-01T00:37:08;1011.2449556647285;;;12.66202204588355;0
55014;BME280;40916;51.632;5.552;2022-07-01T00:38:08;1011.1805152073505;;;12.648650063393564;0
55014;BME280;40916;51.632;5.552;2022-07-01T00:39:08;1011.1530374513372;;;12.635276512880324;0
55014;BME280;40916;51.632;5.552;2022-07-01T00:40:09;1011.0938929262197;;;12.635276512880324;0
55014;BME280;40916;51.632;5.552;2022-07-01T00:41:09;1011.0273553722905;;;12.635276512880324;0
55014;BME280;40916;51.632;5.552;2022-07-01T00:42:09;1010.9764028126241;;;12.641963484199678;0
55014;BME280;40916;51.632;5.552;2022-07-01T00:43:09;1010.9821964932333;;;12.628589149315786;0
55014;BME280;40916;51.632;5.552;2022-07-01T00:44:15;1010.9452317538855;;;12.628589149315786;0
55014;BME280;40916;51.632;5.552;2022-07-01T00:45:09;1011.019161244616;;;12.628589149315786;0
55014;BME280;40916;51.632;5.552;2022-07-01T00:46:09;1011.0302506723776;;;12.628589149315786;0
55014;BME280;40916;51.632;5.552;2022-07-01T00:47:10;1011.0368407075237;;;12.621901393386295;0
55014;BME280;40916;51.632;5.552;2022-07-01T00:48:09;1011.0869785553779;;;12.608524703953169;0
55014;BME280;40916;51.632;5.552;2022-07-01T00:49:10;1011.0455112557479;;;12.60183577020976;0
55014;BME280;40916;51.632;5.552;2022-07-01T00:50:10;1010.9469797244435;;;12.581766611432478;0
55014;BME280;40916;51.632;5.552;2022-07-01T00:51:10;1011.0217139438362;;;12.588456724069445;0
55014;BME280;40916;51.632;5.552;2022-07-01T00:52:10;1010.9387748841892;;;12.575076105590842;0
55014;BME280;40916;51.632;5.552;2022-07-01T00:53:10;1010.9580680175523;;;12.581766611432478;0
55014;BME280;40916;51.632;5.552;2022-07-01T00:54:10;1010.9654602135596;;;12.581766611432478;0
55014;BME280;40916;51.632;5.552;2022-07-01T00:55:11;1011.0697639515761;;;12.588456724069445;0
55014;BME280;40916;51.632;5.552;2022-07-01T00:56:10;1011.0172055990877;;;12.581766611432478;0
55014;BME280;40916;51.632;5.552;2022-07-01T00:57:11;1010.9338156637382;;;12.595146443621854;0
55014;BME280;40916;51.632;5.552;2022-07-01T00:58:11;1011.0438908679586;;;12.588456724069445;0
55014;BME280;40916;51.632;5.552;2022-07-01T00:59:11;1011.0200878713721;;;12.575076105590842;0
55014;BME280;40916;51.632;5.552;2022-07-01T01:00:12;1011.0200832674723;;;12.514843838964342;0
55014;BME280;40916;51.632;5.552;2022-07-01T01:01:11;1011.1091383470906;;;12.488063693287383;0
55014;BME280;40916;51.632;5.552;2022-07-01T01:02:11;1011.0693247930268;;;12.494759321741657;0
55014;BME280;40916;51.632;5.552;2022-07-01T01:03:11;1011.09769011076;;;12.514843838964342;0
55014;BME280;40916;51.632;5.552;2022-07-01T01:04:11;1011.1383413355579;;;12.514843838964342;0
55014;BME280;40916;51.632;5.552;2022-07-01T01:05:11;1011.0385610824911;;;12.514843838964342;0
55014;BME280;40916;51.632;5.552;2022-07-01T01:06:11;1011.1046936746201;;;12.541617674105517;0
55014;BME280;40916;51.632;5.552;2022-07-01T01:07:12;1011.1359052696934;;;12.555002227636137;0
55014;BME280;40916;51.632;5.552;2022-07-01T01:08:12;1011.2098230703062;;;12.555002227636137;0
55014;BME280;40916;51.632;5.552;2022-07-01T01:09:12;1011.2377418459547;;;12.541617674105517;0
55014;BME280;40916;51.632;5.552;2022-07-01T01:10:12;1011.1547822785377;;;12.528231544869517;0
55014;BME280;40916;51.632;5.552;2022-07-01T01:11:12;1011.2841309614889;;;12.528231544869517;0
55014;BME280;40916;51.632;5.552;2022-07-01T01:12:12;1011.3449196529164;;;12.541617674105517;0
55014;BME280;40916;51.632;5.552;2022-07-01T01:13:13;1011.3605295517121;;;12.548310147773794;0
55014;BME280;40916;51.632;5.552;2022-07-01T01:14:12;1011.3872259881248;;;12.555002227636137;0
55014;BME280;40916;51.632;5.552;2022-07-01T01:15:16;1011.3999603222403;;;12.568385206424384;0
55014;BME280;40916;51.632;5.552;2022-07-01T01:16:16;1011.4866112451359;;;12.581766611432478;0
55014;BME280;40916;51.632;5.552;2022-07-01T01:17:13;1011.4956401376548;;;12.595146443621854;0
55014;BME280;40916;51.632;5.552;2022-07-01T01:18:13;1011.4254119263761;;;12.595146443621854;0
55014;BME280;40916;51.632;5.552;2022-07-01T01:19:13;1011.3547334986438;;;12.621901393386295;0
55014;BME280;40916;51.632;5.552;2022-07-01T01:20:14;1011.4089036967912;;;12.641963484199678;0
55014;BME280;40916;51.632;5.552;2022-07-01T01:21:14;1011.4918367132082;;;12.655336250581648;0
55014;BME280;40916;51.632;5.552;2022-07-01T01:22:14;1011.5045287167168;;;12.668707449418832;0
55014;BME280;40916;51.632;5.552;2022-07-01T01:23:14;1011.5990412334247;;;12.655336250581648;0
55014;BME280;40916;51.632;5.552;2022-07-01T01:24:14;1011.6560981756512;;;12.668707449418832;0
55014;BME280;40916;51.632;5.552;2022-07-01T01:25:14;1011.6417894706855;;;12.641963484199678;0
55014;BME280;40916;51.632;5.552;2022-07-01T01:26:14;1011.6746944602806;;;12.608524703953169;0
55014;BME280;40916;51.632;5.552;2022-07-01T01:27:14;1011.6763236232295;;;12.621901393386295;0
55014;BME280;40916;51.632;5.552;2022-07-01T01:28:14;1011.6861487198732;;;12.641963484199678;0
55014;BME280;40916;51.632;5.552;2022-07-01T01:29:14;1011.6151051144267;;;12.635276512880324;0
55014;BME280;40916;51.632;5.552;2022-07-01T01:30:14;1011.7046317454833;;;12.641963484199678;0
55014;BME280;40916;51.632;5.552;2022-07-01T01:31:15;1011.7305079863924;;;12.641963484199678;0
55014;BME280;40916;51.632;5.552;2022-07-01T01:32:15;1011.6996570075937;;;12.66202204588355;0
55014;BME280;40916;51.632;5.552;2022-07-01T01:33:15;1011.6835766344167;;;12.682077081667597;0
55014;BME280;40916;51.632;5.552;2022-07-01T01:34:15;1011.6252229586324;;;12.68876131061997;0
55014;BME280;40916;51.632;5.552;2022-07-01T01:35:15;1011.6439739776041;;;12.722176588435321;0
55014;BME280;40916;51.632;5.552;2022-07-01T01:36:15;1011.7350707649455;;;12.742221065858708;0
55014;BME280;40916;51.632;5.552;2022-07-01T01:37:15;1011.7134312121887;;;12.715494314734276;0
55014;BME280;40916;51.632;5.552;2022-07-01T01:38:15;1011.6698547123495;;;12.722176588435321;0
55014;BME280;40916;51.632;5.552;2022-07-01T01:39:15;1011.6930485491617;;;12.762262030261716;0
55014;BME280;40916;51.632;5.552;2022-07-01T01:40:15;1011.5858190460639;;;12.762262030261716;0
55014;BME280;40916;51.632;5.552;2022-07-01T01:41:16;1011.62201508187;;;12.755582098931413;0
55014;BME280;40916;51.632;5.552;2022-07-01T01:42:16;1011.6299726665459;;;12.728858471443694;0
55014;BME280;40916;51.632;5.552;2022-07-01T01:43:16;1011.5605090596918;;;12.735539963878477;0
55014;BME280;40916;51.632;5.552;2022-07-01T01:44:16;1011.5618462767927;;;12.715494314734276;0
55014;BME280;40916;51.632;5.552;2022-07-01T01:45:16;1011.5137828029502;;;12.715494314734276;0
55014;BME280;40916;51.632;5.552;2022-07-01T01:46:16;1011.5797795969951;;;12.742221065858708;0
55014;BME280;40916;51.632;5.552;2022-07-01T01:47:16;1011.5523293807593;;;12.728858471443694;0
55014;BME280;40916;51.632;5.552;2022-07-01T01:48:16;1011.6099097709821;;;12.715494314734276;0
55014;BME280;40916;51.632;5.552;2022-07-01T01:49:17;1011.6091192100474;;;12.70881165022142;0
55014;BME280;40916;51.632;5.552;2022-07-01T01:50:17;1011.7844694657078;;;12.722176588435321;0
55014;BME280;40916;51.632;5.552;2022-07-01T01:51:17;1011.8140474853566;;;12.722176588435321;0
55014;BME280;40916;51.632;5.552;2022-07-01T01:52:17;1011.768889165948;;;12.715494314734276;0
55014;BME280;40916;51.632;5.552;2022-07-01T01:53:17;1011.7467059811936;;;12.715494314734276;0
55014;BME280;40916;51.632;5.552;2022-07-01T01:54:17;1011.7556809561094;;;12.728858471443694;0
55014;BME280;40916;51.632;5.552;2022-07-01T01:55:17;1011.7002213994388;;;12.728858471443694;0
55014;BME280;40916;51.632;5.552;2022-07-01T01:56:17;1011.6283957357034;;;12.715494314734276;0
55014;BME280;40916;51.632;5.552;2022-07-01T01:57:17;1011.6402767302649;;;12.722176588435321;0
55014;BME280;40916;51.632;5.552;2022-07-01T01:58:17;1011.5626345639542;;;12.722176588435321;0
55014;BME280;40916;51.632;5.552;2022-07-01T01:59:17;1011.5945692228869;;;12.742221065858708;0
55014;BME280;40916;51.632;5.552;2022-07-01T02:00:18;1011.5649899730299;;;12.742221065858708;0
55014;BME280;40916;51.632;5.552;2022-07-01T02:01:18;1011.5412374871242;;;12.728858471443694;0
55014;BME280;40916;51.632;5.552;2022-07-01T02:02:18;1011.524874372031;;;12.715494314734276;0
55014;BME280;40916;51.632;5.552;2022-07-01T02:03:18;1011.5364955086789;;;12.68876131061997;0
55014;BME280;40916;51.632;5.552;2022-07-01T02:04:18;1011.6009329023888;;;12.70212859477758;0
55014;BME280;40916;51.632;5.552;2022-07-01T02:05:18;1011.5972358174002;;;12.70212859477758;0
55014;BME280;40916;51.632;5.552;2022-07-01T02:06:19;1011.6043427278993;;;12.668707449418832;0
55014;BME280;40916;51.632;5.552;2022-07-01T02:07:18;1011.6785717149577;;;12.70212859477758;0
55014;BME280;40916;51.632;5.552;2022-07-01T02:08:18;1011.7002213994388;;;12.728858471443694;0
55014;BME280;40916;51.632;5.552;2022-07-01T02:09:19;1011.7144529913858;;;12.755582098931413;0
55014;BME280;40916;51.632;5.552;2022-07-01T02:10:19;1011.690130014064;;;12.768941571613126;0
55014;BME280;40916;51.632;5.552;2022-07-01T02:11:19;1011.6280469678818;;;12.775620723104439;0
55014;BME280;40916;51.632;5.552;2022-07-01T02:12:19;1011.6636477201215;;;12.795655839605004;0
55014;BME280;40916;51.632;5.552;2022-07-01T02:13:19;1011.6807472340117;;;12.815687451636652;0
55014;BME280;40916;51.632;5.552;2022-07-01T02:14:19;1011.6681163556127;;;12.8023334328429;0
55014;BME280;40916;51.632;5.552;2022-07-01T02:15:19;1011.7107554735603;;;12.755582098931413;0
55014;BME280;40916;51.632;5.552;2022-07-01T02:16:19;1011.741896766768;;;12.768941571613126;0
55014;BME280;40916;51.632;5.552;2022-07-01T02:17:20;1011.7825706604507;;;12.768941571613126;0
55014;BME280;40916;51.632;5.552;2022-07-01T02:18:20;1011.7860477536551;;;12.735539963878477;0
55014;BME280;40916;51.632;5.552;2022-07-01T02:19:20;1011.8681776493852;;;12.742221065858708;0
55014;BME280;40916;51.632;5.552;2022-07-01T02:20:20;1011.9339422224233;;;12.735539963878477;0
55014;BME280;40916;51.632;5.552;2022-07-01T02:21:20;1011.8399282588701;;;12.722176588435321;0
55014;BME280;40916;51.632;5.552;2022-07-01T02:22:20;1011.8629028424887;;;12.728858471443694;0
55014;BME280;40916;51.632;5.552;2022-07-01T02:24:20;1011.9075078591754;;;12.762262030261716;0
55014;BME280;40916;51.632;5.552;2022-07-01T02:25:20;1011.8734463718005;;;12.755582098931413;0
55014;BME280;40916;51.632;5.552;2022-07-01T02:26:21;1011.9476051545886;;;12.788977856981703;0
55014;BME280;40916;51.632;5.552;2022-07-01T02:27:21;1011.9557772952828;;;12.795655839605004;0
55014;BME280;40916;51.632;5.552;2022-07-01T02:28:21;1011.9166481910045;;;12.809010636813948;0
55014;BME280;40916;51.632;5.552;2022-07-01T02:29:21;1011.9528543754332;;;12.8023334328429;0
55014;BME280;40916;51.632;5.552;2022-07-01T02:30:21;1011.9853600789831;;;12.795655839605004;0
55014;BME280;40916;51.632;5.552;2022-07-01T02:31:21;1012.03128480517;;;12.809010636813948;0
55014;BME280;40916;51.632;5.552;2022-07-01T02:32:21;1011.9758154612819;;;12.809010636813948;0
55014;BME280;40916;51.632;5.552;2022-07-01T02:33:21;1012.0439232495769;;;12.822363877429467;0
55014;BME280;40916;51.632;5.552;2022-07-01T02:34:21;1011.9543995158592;;;12.815687451636652;0
55014;BME280;40916;51.632;5.552;2022-07-01T02:35:22;1011.9870567336994;;;12.842390821812444;0
55014;BME280;40916;51.632;5.552;2022-07-01T02:36:22;1011.9477736058722;;;12.822363877429467;0
55014;BME280;40916;51.632;5.552;2022-07-01T02:37:22;1011.8641047861621;;;12.8023334328429;0
55014;BME280;40916;51.632;5.552;2022-07-01T02:38:22;1011.8166285980586;;;12.775620723104439;0
55014;BME280;40916;51.632;5.552;2022-07-01T02:39:22;1011.8026153695455;;;12.782299484854398;0
55014;BME280;40916;51.632;5.552;2022-07-01T02:40:22;1011.7648610605453;;;12.775620723104439;0
55014;BME280;40916;51.632;5.552;2022-07-01T02:41:22;1011.6953810976837;;;12.782299484854398;0
55014;BME280;40916;51.632;5.552;2022-07-01T02:42:22;1011.6848728521525;;;12.755582098931413;0
55014;BME280;40916;51.632;5.552;2022-07-01T02:43:22;1011.712886299377;;;12.742221065858708;0
55014;BME280;40916;51.632;5.552;2022-07-01T02:44:23;1011.6936138085042;;;12.735539963878477;0
55014;BME280;40916;51.632;5.552;2022-07-01T02:45:23;1011.723192662765;;;12.735539963878477;0
55014;BME280;40916;51.632;5.552;2022-07-01T02:47:23;1011.5280159215451;;;12.742221065858708;0
55014;BME280;40916;51.632;5.552;2022-07-01T02:48:23;1011.5731668788309;;;12.748901777503374;0
55014;BME280;40916;51.632;5.552;2022-07-01T02:49:23;1011.4696380557727;;;12.748901777503374;0
55014;BME280;40916;51.632;5.552;2022-07-01T02:50:23;1011.4879024793088;;;12.715494314734276;0
55014;BME280;40916;51.632;5.552;2022-07-01T02:51:24;1011.5048087318128;;;12.70212859477758;0
55014;BME280;40916;51.632;5.552;2022-07-01T02:52:24;1011.5573592762958;;;12.70881165022142;0
55014;BME280;40916;51.632;5.552;2022-07-01T02:53:24;1011.7200334332591;;;12.70881165022142;0
55014;BME280;40916;51.632;5.552;2022-07-01T02:54:24;1011.7947695536394;;;12.715494314734276;0
55014;BME280;40916;51.632;5.552;2022-07-01T02:55:24;1011.8042727621555;;;12.70212859477758;0
55014;BME280;40916;51.632;5.552;2022-07-01T02:56:24;1011.8026780665573;;;12.68876131061997;0
55014;BME280;40916;51.632;5.552;2022-07-01T02:57:24;1011.8129691449183;;;12.682077081667597;0
55014;BME280;40916;51.632;5.552;2022-07-01T02:58:24;1011.8848110678642;;;12.695445148283525;0
55014;BME280;40916;51.632;5.552;2022-07-01T02:59:24;1011.8470418868756;;;12.68876131061997;0
55014;BME280;40916;51.632;5.552;2022-07-01T03:00:24;1011.7952840981895;;;12.68876131061997;0
55014;BME280;40916;51.632;5.552;2022-07-01T03:01:24;1011.8264553143428;;;12.70212859477758;0
55014;BME280;40916;51.632;5.552;2022-07-01T03:02:25;1011.8908967595712;;;12.715494314734276;0
55014;BME280;40916;51.632;5.552;2022-07-01T03:03:25;1011.9545431839163;;;12.722176588435321;0
55014;BME280;40916;51.632;5.552;2022-07-01T03:04:25;1011.9130799724979;;;12.715494314734276;0
55014;BME280;40916;51.632;5.552;2022-07-01T03:05:25;1012.0136993195323;;;12.722176588435321;0
55014;BME280;40916;51.632;5.552;2022-07-01T03:06:25;1011.9854303985136;;;12.70212859477758;0
55014;BME280;40916;51.632;5.552;2022-07-01T03:07:25;1012.0129044843042;;;12.715494314734276;0
55014;BME280;40916;51.632;5.552;2022-07-01T03:08:25;1012.1003237300623;;;12.735539963878477;0
55014;BME280;40916;51.632;5.552;2022-07-01T03:09:25;1012.0752331131308;;;12.742221065858708;0
55014;BME280;40916;51.632;5.552;2022-07-01T03:10:25;1011.9658844860228;;;12.755582098931413;0
55014;BME280;40916;51.632;5.552;2022-07-01T03:11:26;1011.9592739602147;;;12.762262030261716;0
55014;BME280;40916;51.632;5.552;2022-07-01T03:12:26;1011.9563592794127;;;12.768941571613126;0
55014;BME280;40916;51.632;5.552;2022-07-01T03:13:26;1012.0297342689861;;;12.795655839605004;0
55014;BME280;40916;51.632;5.552;2022-07-01T03:14:26;1012.0556192211637;;;12.795655839605004;0
55014;BME280;40916;51.632;5.552;2022-07-01T03:15:26;1011.9682336651284;;;12.775620723104439;0
55014;BME280;40916;51.632;5.552;2022-07-01T03:16:26;1012.0746835977287;;;12.768941571613126;0
55014;BME280;40916;51.632;5.552;2022-07-01T03:17:27;1012.0598930511956;;;12.768941571613126;0
55014;BME280;40916;51.632;5.552;2022-07-01T03:19:26;1012.0281774443856;;;12.782299484854398;0
55014;BME280;40916;51.632;5.552;2022-07-01T03:20:26;1012.122180553861;;;12.795655839605004;0
55014;BME280;40916;51.632;5.552;2022-07-01T03:21:27;1012.1036912908642;;;12.795655839605004;0
55014;BME280;40916;51.632;5.552;2022-07-01T03:22:27;1012.1297499348653;;;12.829039914310808;0
55014;BME280;40916;51.632;5.552;2022-07-01T03:23:27;1012.1104884352245;;;12.822363877429467;0
55014;BME280;40916;51.632;5.552;2022-07-01T03:24:27;1012.1513105675161;;;12.855740175087874;0
55014;BME280;40916;51.632;5.552;2022-07-01T03:25:27;1012.024803875274;;;12.84906569266932;0
55014;BME280;40916;51.632;5.552;2022-07-01T03:26:27;1012.0759281982153;;;12.87576129289506;0
55014;BME280;40916;51.632;5.552;2022-07-01T03:27:27;1012.0515519258121;;;12.88910676474006;0
55014;BME280;40916;51.632;5.552;2022-07-01T03:28:27;1011.9242900225938;;;12.87576129289506;0
55014;BME280;40916;51.632;5.552;2022-07-01T03:29:27;1012.0345653046004;;;12.90245068566491;0
55014;BME280;40916;51.632;5.552;2022-07-01T03:30:28;1012.0308665971529;;;12.90245068566491;0
55014;BME280;40916;51.632;5.552;2022-07-01T03:31:28;1012.0316173846277;;;12.909122064826953;0
55014;BME280;40916;51.632;5.552;2022-07-01T03:32:28;1012.0360654206203;;;12.915793056612472;0
55014;BME280;40916;51.632;5.552;2022-07-01T03:33:28;1012.071594636124;;;12.935803708887033;0
55014;BME280;40916;51.632;5.552;2022-07-01T03:34:28;1012.0050130782693;;;12.935803708887033;0
55014;BME280;40916;51.632;5.552;2022-07-01T03:35:28;1012.0353478373748;;;12.942473152343368;0
55014;BME280;40916;51.632;5.552;2022-07-01T03:36:28;1012.0523640933313;;;12.962479162452478;0
55014;BME280;40916;51.632;5.552;2022-07-01T03:37:28;1012.0568002564166;;;12.969147059460393;0
55014;BME280;40916;51.632;5.552;2022-07-01T03:38:28;1012.0198078246921;;;12.969147059460393;0
55014;BME280;40916;51.632;5.552;2022-07-01T03:39:28;1012.1618513861051;;;12.982481694637762;0
55014;BME280;40916;51.632;5.552;2022-07-01T03:40:29;1012.0878643247615;;;12.982481694637762;0
55014;BME280;40916;51.632;5.552;2022-07-01T03:41:29;1012.0826949657952;;;12.969147059460393;0
55014;BME280;40916;51.632;5.552;2022-07-01T03:42:29;1012.0989623808894;;;12.982481694637762;0
55014;BME280;40916;51.632;5.552;2022-07-01T03:43:29;1012.18404751391;;;12.982481694637762;0
55014;BME280;40916;51.632;5.552;2022-07-01T03:44:29;1012.0715972324812;;;12.969147059460393;0
55014;BME280;40916;51.632;5.552;2022-07-01T03:45:29;1012.1588857630009;;;12.989148433041784;0
55014;BME280;40916;51.632;5.552;2022-07-01T03:46:29;1012.1426195370302;;;12.97581457014972;0
55014;BME280;40916;51.632;5.552;2022-07-01T03:47:29;1012.2040114759444;;;12.995814785479006;0
55014;BME280;40916;51.632;5.552;2022-07-01T03:48:29;1012.3157282680869;;;13.002480752066592;0
55014;BME280;40916;51.632;5.552;2022-07-01T03:49:30;1012.3305263485603;;;13.002480752066592;0
55014;BME280;40916;51.632;5.552;2022-07-01T03:50:30;1012.2743012891848;;;12.995814785479006;0
55014;BME280;40916;51.632;5.552;2022-07-01T03:51:30;1012.2831930282327;;;12.97581457014972;0
55014;BME280;40916;51.632;5.552;2022-07-01T03:52:30;1012.3209237312577;;;12.982481694637762;0
55014;BME280;40916;51.632;5.552;2022-07-01T03:53:30;1012.4526105860579;;;13.002480752066592;0
55014;BME280;40916;51.632;5.552;2022-07-01T03:54:30;1012.4230143952161;;;13.002480752066592;0
55014;BME280;40916;51.632;5.552;2022-07-01T03:55:30;1012.3645540279946;;;13.00914633292166;0
55014;BME280;40916;51.632;5.552;2022-07-01T03:56:31;1012.3245885515689;;;13.015811528161287;0
55014;BME280;40916;51.632;5.552;2022-07-01T03:57:30;1012.4569868342107;;;13.042468455305166;0
55014;BME280;40916;51.632;5.552;2022-07-01T03:58:31;1012.4599611522605;;;13.035804801357529;0
55014;BME280;40916;51.632;5.552;2022-07-01T03:59:33;1012.5013849899241;;;13.042468455305166;0
55014;BME280;40916;51.632;5.552;2022-07-01T04:00:31;1012.4392112547542;;;13.049131724222015;0
55014;BME280;40916;51.632;5.552;2022-07-01T04:01:31;1012.4702539202133;;;13.062457107430458;0
55014;BME280;40916;51.632;5.552;2022-07-01T04:02:31;1012.4665539137404;;;13.062457107430458;0
55014;BME280;40916;51.632;5.552;2022-07-01T04:03:31;1012.5079739257654;;;13.069119221955486;0
55014;BME280;40916;51.632;5.552;2022-07-01T04:04:31;1012.4598731395506;;;13.069119221955486;0
55014;BME280;40916;51.632;5.552;2022-07-01T04:05:32;1012.5405540661096;;;13.062457107430458;0
55014;BME280;40916;51.632;5.552;2022-07-01T04:06:31;1012.5576080689522;;;13.049131724222015;0
55014;BME280;40916;51.632;5.552;2022-07-01T04:07:32;1012.5687077766132;;;13.049131724222015;0
55014;BME280;40916;51.632;5.552;2022-07-01T04:08:32;1012.6122955630287;;;13.075780951916599;0
55014;BME280;40916;51.632;5.552;2022-07-01T04:09:32;1012.610030414123;;;13.089103258613434;0
55014;BME280;40916;51.632;5.552;2022-07-01T04:10:32;1012.615159486983;;;13.102424028453196;0
55014;BME280;40916;51.632;5.552;2022-07-01T04:11:32;1012.5885438935535;;;13.095763835582215;0
55014;BME280;40916;51.632;5.552;2022-07-01T04:12:32;1012.6720887108355;;;13.11574326236737;0
55014;BME280;40916;51.632;5.552;2022-07-01T04:13:32;1012.6232723477032;;;13.109083837342794;0
55014;BME280;40916;51.632;5.552;2022-07-01T04:14:32;1012.5670551784501;;;13.102424028453196;0
55014;BME280;40916;51.632;5.552;2022-07-01T04:15:32;1012.5515411210154;;;13.095763835582215;0
55014;BME280;40916;51.632;5.552;2022-07-01T04:16:32;1012.5182386360417;;;13.095763835582215;0